Time;durP1;ratioP1;P1;durP2;ratioP2;P2;SDS_P1;SDS_P2;PMS_P1;PMS_P2;Temp;Humidity;BMP_temperature;BMP_pressure;BME280_temperature;BME280_humidity;BME280_pressure;Samples;Min_cycle;Max_cycle;Signal;HPM_P1;HPM_P2
2021/12/01 00:01:49;;;;;;;109.53;40.55;;;8.80;99.90;;;;;;5068911;28;20048;-68
2021/12/01 00:04:15;;;;;;;95.47;37.55;;;9.00;99.90;;;;;;5069011;28;20049;-68
2021/12/01 00:06:40;;;;;;;94.07;36.35;;;9.00;99.90;;;;;;5052373;28;20048;-68
2021/12/01 00:09:06;;;;;;;87.43;34.97;;;9.00;99.90;;;;;;5069391;28;20386;-68
2021/12/01 00:11:32;;;;;;;71.60;33.53;;;8.80;99.90;;;;;;5070829;28;20427;-68
2021/12/01 00:13:57;;;;;;;77.45;33.83;;;9.10;99.90;;;;;;5069345;28;20571;-68
2021/12/01 00:16:23;;;;;;;70.40;32.88;;;9.00;99.90;;;;;;5070589;28;20542;-68
2021/12/01 00:18:49;;;;;;;69.82;33.45;;;9.30;99.90;;;;;;5070590;28;20539;-68
2021/12/01 00:21:15;;;;;;;72.82;33.95;;;9.00;99.90;;;;;;5068946;28;20124;-67
2021/12/01 00:23:40;;;;;;;61.75;31.92;;;9.10;99.90;;;;;;5070280;28;20119;-67
2021/12/01 00:26:07;;;;;;;60.05;32.95;;;9.90;99.90;;;;;;5068838;28;20089;-68
2021/12/01 00:28:33;;;;;;;61.72;34.35;;;9.10;99.90;;;;;;5070002;28;20056;-68
2021/12/01 00:30:59;;;;;;;75.05;36.45;;;9.30;99.90;;;;;;5070092;28;20074;-67
2021/12/01 00:33:25;;;;;;;67.20;34.60;;;8.90;99.90;;;;;;5068828;28;20090;-68
2021/12/01 00:35:56;;;;;;;73.53;38.03;;;9.00;99.90;;;;;;5070241;28;20292;-68
2021/12/01 00:38:25;;;;;;;62.80;35.10;;;9.10;99.90;;;;;;5068581;28;20041;-68
2021/12/01 00:40:51;;;;;;;62.53;36.25;;;9.20;99.90;;;;;;5068364;28;20068;-69
2021/12/01 00:43:18;;;;;;;68.00;37.55;;;9.20;99.90;;;;;;5068947;28;20059;-68
2021/12/01 00:46:08;;;;;;;63.65;37.03;;;9.20;99.90;;;;;;5068550;28;20507;-68
2021/12/01 00:48:34;;;;;;;57.67;36.42;;;9.10;99.90;;;;;;5068769;28;20051;-68
2021/12/01 00:51:00;;;;;;;64.90;37.80;;;9.20;99.90;;;;;;5068624;28;20048;-68
2021/12/01 00:53:26;;;;;;;78.30;41.42;;;9.20;99.90;;;;;;5069057;28;20397;-68
2021/12/01 00:55:51;;;;;;;67.55;38.58;;;9.20;99.90;;;;;;5068427;28;20053;-68
2021/12/01 00:58:17;;;;;;;72.53;40.08;;;9.80;99.90;;;;;;5068512;28;20654;-68
2021/12/01 01:00:44;;;;;;;68.03;39.55;;;9.50;99.90;;;;;;5068277;28;20045;-68
2021/12/01 01:03:10;;;;;;;73.03;40.53;;;9.20;99.90;;;;;;5068583;28;20619;-68
2021/12/01 01:05:37;;;;;;;61.28;36.85;;;9.20;99.90;;;;;;5071480;28;20076;-69
2021/12/01 01:08:03;;;;;;;64.22;38.55;;;9.20;99.90;;;;;;5072139;28;20561;-68
2021/12/01 01:10:45;;;;;;;57.85;35.25;;;9.20;99.90;;;;;;5072128;28;20400;-69
2021/12/01 01:18:48;;;;;;;67.72;38.58;;;9.30;99.90;;;;;;5072140;28;20131;-69
2021/12/01 01:21:15;;;;;;;63.58;36.80;;;9.10;99.90;;;;;;5071889;28;20123;-69
2021/12/01 01:23:41;;;;;;;69.95;37.95;;;9.60;99.90;;;;;;5071695;28;20052;-68
2021/12/01 01:26:11;;;;;;;78.85;39.30;;;9.40;99.90;;;;;;5072224;28;20032;-69
2021/12/01 01:28:37;;;;;;;74.50;37.78;;;9.30;99.90;;;;;;5071714;28;20072;-69
2021/12/01 01:31:03;;;;;;;75.78;36.83;;;9.30;99.90;;;;;;5071616;28;20076;-69
2021/12/01 01:33:29;;;;;;;66.60;34.53;;;9.30;99.90;;;;;;5071310;28;20059;-69
2021/12/01 01:35:56;;;;;;;65.68;33.33;;;9.30;99.90;;;;;;5055246;28;20036;-69
2021/12/01 01:38:21;;;;;;;54.22;30.58;;;9.30;99.90;;;;;;5071591;28;20525;-69
2021/12/01 01:40:49;;;;;;;59.05;31.50;;;9.30;99.90;;;;;;5054703;28;20056;-69
2021/12/01 01:43:16;;;;;;;54.33;29.95;;;9.30;99.90;;;;;;5071194;28;20048;-69
2021/12/01 01:45:43;;;;;;;68.07;31.85;;;9.20;99.90;;;;;;5054530;28;20040;-69
2021/12/01 01:48:11;;;;;;;54.28;29.65;;;9.20;99.90;;;;;;5054399;28;20083;-69
2021/12/01 01:50:42;;;;;;;51.88;28.60;;;9.10;99.90;;;;;;5071108;28;20044;-69
2021/12/01 01:53:19;;;;;;;51.15;29.70;;;9.40;99.90;;;;;;5071020;28;20064;-69
2021/12/01 01:55:48;;;;;;;47.92;28.92;;;9.40;99.90;;;;;;5071061;28;20045;-69
2021/12/01 01:58:14;;;;;;;46.08;27.42;;;9.40;99.90;;;;;;5071173;28;20049;-69
2021/12/01 02:01:32;;;;;;;45.55;27.30;;;9.40;99.90;;;;;;5070809;28;20119;-69
2021/12/01 02:03:30;;;;;;;52.45;27.65;;;9.20;99.90;;;;;;5065762;28;20049;-69
2021/12/01 02:05:56;;;;;;;51.72;27.40;;;9.40;99.90;;;;;;5071307;28;20095;-69
2021/12/01 02:08:29;;;;;;;52.38;28.30;;;9.60;99.90;;;;;;5071152;28;20057;-69
2021/12/01 02:10:57;;;;;;;48.33;26.83;;;9.40;99.90;;;;;;5071106;28;20052;-71
2021/12/01 02:13:25;;;;;;;49.13;26.75;;;10.10;99.90;;;;;;5071138;28;20080;-71
2021/12/01 02:15:52;;;;;;;56.00;28.42;;;9.60;99.90;;;;;;5071202;28;20044;-71
2021/12/01 02:18:19;;;;;;;49.25;27.08;;;9.50;99.90;;;;;;5054723;28;20074;-71
2021/12/01 02:21:03;;;;;;;56.70;28.88;;;9.50;99.90;;;;;;5071074;28;20539;-71
2021/12/01 02:23:29;;;;;;;47.53;26.25;;;9.00;99.90;;;;;;5071065;28;20405;-71
2021/12/01 02:25:55;;;;;;;52.20;26.38;;;9.60;99.90;;;;;;5070679;28;20052;-71
2021/12/01 02:28:21;;;;;;;50.00;24.95;;;9.50;99.90;;;;;;5070893;28;20095;-72
2021/12/01 02:30:47;;;;;;;43.50;23.08;;;9.70;99.90;;;;;;5070843;28;20072;-71
2021/12/01 02:33:13;;;;;;;42.33;22.98;;;9.50;99.90;;;;;;5070701;28;20040;-71
2021/12/01 02:35:39;;;;;;;43.88;22.75;;;9.60;99.90;;;;;;5054030;28;20053;-70
2021/12/01 02:38:05;;;;;;;37.33;21.35;;;9.50;99.90;;;;;;5071805;28;20033;-70
2021/12/01 02:40:32;;;;;;;38.83;20.25;;;9.60;99.90;;;;;;5053879;28;20080;-71
2021/12/01 02:42:58;;;;;;;41.50;21.27;;;9.80;99.90;;;;;;5070794;28;20048;-71
2021/12/01 02:45:24;;;;;;;32.70;19.17;;;9.40;99.90;;;;;;5070473;28;20055;-70
2021/12/01 02:47:50;;;;;;;34.95;19.42;;;9.60;99.90;;;;;;5070269;28;20052;-70
2021/12/01 02:50:15;;;;;;;29.95;17.08;;;9.60;99.90;;;;;;5070278;28;20122;-71
2021/12/01 02:52:42;;;;;;;31.15;17.27;;;9.70;99.90;;;;;;5069870;28;20194;-71
2021/12/01 02:55:10;;;;;;;28.70;16.30;;;9.50;99.90;;;;;;5069885;28;20052;-71
2021/12/01 02:57:45;;;;;;;29.33;15.82;;;9.60;99.90;;;;;;5069812;28;20052;-71
2021/12/01 03:00:14;;;;;;;25.85;14.32;;;9.90;99.90;;;;;;5053691;28;20044;-71
2021/12/01 03:02:41;;;;;;;22.38;12.50;;;9.60;99.90;;;;;;5053352;28;20044;-70
2021/12/01 03:05:09;;;;;;;18.73;11.35;;;9.60;99.90;;;;;;5069528;28;20514;-71
2021/12/01 03:07:36;;;;;;;18.20;10.93;;;9.70;99.90;;;;;;5070137;28;20381;-70
2021/12/01 03:10:03;;;;;;;14.73;9.95;;;9.70;99.90;;;;;;5053349;28;20094;-70
2021/12/01 03:12:30;;;;;;;15.55;9.75;;;9.60;99.90;;;;;;5070283;28;20090;-70
2021/12/01 03:14:56;;;;;;;11.52;8.65;;;9.70;99.90;;;;;;5053169;28;20551;-70
2021/12/01 03:17:26;;;;;;;11.68;7.45;;;9.60;99.90;;;;;;5053084;28;20361;-70
2021/12/01 03:19:53;;;;;;;10.32;6.57;;;9.70;99.90;;;;;;5069270;28;20090;-69
2021/12/01 03:22:19;;;;;;;8.55;6.60;;;9.90;99.90;;;;;;5069283;28;20049;-70
2021/12/01 03:24:45;;;;;;;9.60;7.22;;;9.60;99.90;;;;;;5069279;28;20036;-69
2021/12/01 03:27:10;;;;;;;11.43;7.43;;;9.70;99.90;;;;;;5052398;28;20060;-70
2021/12/01 03:29:36;;;;;;;12.00;7.90;;;9.70;99.90;;;;;;5069234;28;20400;-70
2021/12/01 03:32:03;;;;;;;15.70;8.50;;;9.70;99.90;;;;;;5069410;28;20088;-70
2021/12/01 03:34:29;;;;;;;11.30;7.45;;;9.90;99.90;;;;;;5069486;28;20519;-71
2021/12/01 03:36:55;;;;;;;13.55;8.38;;;9.50;99.90;;;;;;5070641;28;20040;-70
2021/12/01 03:39:21;;;;;;;15.15;7.97;;;9.80;99.90;;;;;;5069026;28;20506;-70
2021/12/01 03:41:46;;;;;;;12.15;7.80;;;9.70;99.90;;;;;;5069191;28;20041;-70
2021/12/01 03:44:12;;;;;;;13.80;7.53;;;9.50;99.90;;;;;;5069447;28;20120;-70
2021/12/01 03:46:38;;;;;;;10.90;6.95;;;9.70;99.90;;;;;;5069324;28;20049;-70
2021/12/01 03:49:04;;;;;;;10.50;7.05;;;9.80;99.90;;;;;;5068985;28;20190;-70
2021/12/01 03:51:29;;;;;;;9.63;7.35;;;9.70;99.90;;;;;;5068972;28;20098;-70
2021/12/01 03:53:55;;;;;;;9.15;7.50;;;9.70;99.90;;;;;;5069003;28;20056;-69
2021/12/01 03:56:21;;;;;;;10.77;7.93;;;9.70;99.90;;;;;;5068810;28;20045;-69
2021/12/01 03:58:48;;;;;;;9.82;7.38;;;9.80;99.90;;;;;;5069119;28;20117;-70
2021/12/01 04:01:14;;;;;;;9.30;7.78;;;9.50;99.90;;;;;;5069027;28;20040;-69
2021/12/01 04:03:40;;;;;;;8.63;7.53;;;10.00;99.90;;;;;;5069032;28;20519;-69
2021/12/01 04:06:06;;;;;;;8.57;7.40;;;9.70;99.90;;;;;;5069195;28;20071;-70
2021/12/01 04:08:34;;;;;;;8.57;7.05;;;9.70;99.90;;;;;;5069011;28;20143;-67
2021/12/01 04:10:59;;;;;;;8.77;6.47;;;9.70;99.90;;;;;;5070298;28;20109;-70
2021/12/01 04:13:25;;;;;;;9.93;6.60;;;10.00;99.90;;;;;;5068499;28;20488;-68
2021/12/01 04:15:53;;;;;;;7.53;6.20;;;9.50;99.90;;;;;;5069298;28;20060;-69
2021/12/01 04:18:18;;;;;;;7.72;6.20;;;9.40;99.90;;;;;;5068765;28;20044;-70
2021/12/01 04:20:44;;;;;;;7.53;6.13;;;9.70;99.90;;;;;;5068683;28;20056;-70
2021/12/01 04:23:10;;;;;;;9.73;6.57;;;9.80;99.90;;;;;;5070234;28;20061;-70
2021/12/01 04:25:36;;;;;;;6.88;5.47;;;9.40;99.90;;;;;;5069003;28;20036;-71
2021/12/01 04:28:02;;;;;;;7.65;6.07;;;9.80;99.90;;;;;;5068938;28;20052;-70
2021/12/01 04:30:27;;;;;;;7.20;5.38;;;9.60;99.90;;;;;;5052213;28;20416;-70
2021/12/01 04:32:54;;;;;;;6.03;5.43;;;9.60;99.90;;;;;;5068692;28;20084;-71
2021/12/01 04:35:23;;;;;;;6.38;5.05;;;9.40;99.90;;;;;;5068803;28;20048;-70
2021/12/01 04:37:49;;;;;;;6.80;5.30;;;9.50;99.90;;;;;;5051725;28;20052;-70
2021/12/01 04:40:17;;;;;;;6.70;5.50;;;9.40;99.90;;;;;;5071080;28;20048;-70
2021/12/01 04:42:43;;;;;;;6.78;5.15;;;9.50;99.90;;;;;;5072417;28;20391;-70
2021/12/01 04:45:14;;;;;;;6.40;5.10;;;9.50;99.90;;;;;;5072213;28;20048;-70
2021/12/01 04:47:49;;;;;;;6.82;5.00;;;9.50;99.90;;;;;;5072291;28;20044;-70
2021/12/01 04:50:17;;;;;;;5.00;4.07;;;9.40;99.90;;;;;;5072335;28;20045;-69
2021/12/01 04:52:44;;;;;;;5.05;4.22;;;;;;;;;;5055831;28;20040;-71
2021/12/01 04:55:10;;;;;;;5.30;4.20;;;9.50;99.90;;;;;;5056225;28;20056;-69
2021/12/01 04:57:42;;;;;;;6.40;4.03;;;9.40;99.90;;;;;;5072464;28;20039;-70
2021/12/01 05:00:10;;;;;;;4.70;4.20;;;9.40;99.90;;;;;;5072201;28;20059;-70
2021/12/01 05:02:36;;;;;;;4.43;3.88;;;7.50;99.90;;;;;;5055343;28;20048;-70
2021/12/01 05:05:02;;;;;;;5.90;4.20;;;9.40;99.90;;;;;;5055585;28;20404;-71
2021/12/01 05:07:28;;;;;;;4.60;3.78;;;9.30;99.90;;;;;;5072275;28;20825;-70
2021/12/01 05:09:56;;;;;;;4.47;3.95;;;9.50;99.90;;;;;;5072497;28;20070;-70
2021/12/01 05:12:22;;;;;;;4.13;3.60;;;9.30;99.90;;;;;;5072175;28;20049;-70
2021/12/01 05:14:47;;;;;;;4.15;3.75;;;9.60;99.90;;;;;;5055143;28;20049;-70
2021/12/01 05:17:13;;;;;;;5.38;3.90;;;9.20;99.90;;;;;;5071816;28;20055;-70
2021/12/01 05:19:39;;;;;;;4.50;4.10;;;8.90;99.90;;;;;;5071825;28;20045;-70
2021/12/01 05:22:05;;;;;;;4.43;4.00;;;9.30;99.90;;;;;;5055032;28;20037;-68
2021/12/01 05:24:32;;;;;;;4.82;4.32;;;9.20;99.90;;;;;;5072114;28;20494;-69
2021/12/01 05:26:58;;;;;;;6.85;4.10;;;9.20;99.90;;;;;;5071899;28;20361;-70
2021/12/01 05:29:24;;;;;;;5.30;4.05;;;9.00;99.90;;;;;;5071517;28;20044;-70
2021/12/01 05:31:51;;;;;;;5.35;4.72;;;8.90;99.90;;;;;;5071423;28;20049;-70
2021/12/01 05:34:17;;;;;;;5.30;4.45;;;9.20;99.90;;;;;;5071456;28;20504;-69
2021/12/01 05:36:43;;;;;;;4.93;4.40;;;9.50;99.90;;;;;;5071770;28;20130;-70
2021/12/01 05:39:08;;;;;;;4.95;4.20;;;9.10;99.90;;;;;;5072730;28;20055;-70
2021/12/01 05:41:34;;;;;;;5.85;4.80;;;9.10;99.90;;;;;;5070902;28;20053;-70
2021/12/01 05:44:00;;;;;;;4.45;4.05;;;8.90;99.90;;;;;;5071437;28;20044;-70
2021/12/01 05:46:27;;;;;;;6.57;4.45;;;9.00;99.90;;;;;;5071753;28;20074;-70
2021/12/01 05:48:54;;;;;;;5.15;4.65;;;9.70;99.90;;;;;;5071820;28;20041;-69
2021/12/01 05:51:20;;;;;;;6.95;4.60;;;9.00;99.90;;;;;;5071819;28;20458;-70
2021/12/01 05:53:48;;;;;;;6.47;4.70;;;9.00;99.90;;;;;;5071777;28;20062;-70
2021/12/01 05:56:14;;;;;;;5.30;4.75;;;8.80;99.90;;;;;;5071279;28;20059;-70
2021/12/01 05:58:40;;;;;;;5.22;4.57;;;8.90;99.90;;;;;;5071511;28;20048;-71
2021/12/01 06:01:06;;;;;;;4.78;4.30;;;8.90;99.90;;;;;;5058220;28;20049;-69
2021/12/01 06:03:32;;;;;;;5.32;4.60;;;8.90;99.90;;;;;;5086882;28;20492;-70
2021/12/01 06:05:57;;;;;;;5.40;4.88;;;8.80;99.90;;;;;;5070098;28;20051;-70
2021/12/01 06:08:23;;;;;;;5.93;4.55;;;9.00;99.90;;;;;;5070433;28;20451;-70
2021/12/01 06:10:49;;;;;;;5.13;4.60;;;;;;;;;;5070341;28;20050;-70
2021/12/01 06:13:20;;;;;;;5.40;4.70;;;8.80;99.90;;;;;;5053642;28;20049;-70
2021/12/01 06:15:49;;;;;;;6.07;5.00;;;8.80;99.90;;;;;;5069984;28;20048;-69
2021/12/01 06:18:14;;;;;;;5.47;4.85;;;8.60;99.90;;;;;;5067458;28;20495;-70
2021/12/01 06:20:40;;;;;;;5.57;5.03;;;8.60;99.90;;;;;;5069718;28;20127;-70
2021/12/01 06:23:06;;;;;;;5.70;5.07;;;8.40;99.90;;;;;;5069510;28;20043;-70
2021/12/01 06:25:32;;;;;;;5.60;5.05;;;9.30;99.90;;;;;;5070302;28;20091;-70
2021/12/01 06:27:58;;;;;;;5.82;5.22;;;8.70;99.90;;;;;;5069743;28;20032;-70
2021/12/01 06:30:26;;;;;;;5.35;4.85;;;8.80;99.90;;;;;;5069436;28;20048;-70
2021/12/01 06:32:53;;;;;;;5.35;4.85;;;8.90;99.90;;;;;;5070132;28;20055;-69
2021/12/01 06:35:19;;;;;;;6.00;5.40;;;8.80;99.90;;;;;;5070520;28;20814;-70
2021/12/01 06:37:46;;;;;;;6.50;5.18;;;8.70;99.90;;;;;;5070339;28;20044;-70
2021/12/01 06:40:14;;;;;;;5.43;4.90;;;9.50;99.90;;;;;;5069933;28;20068;-69
2021/12/01 06:42:40;;;;;;;5.40;4.82;;;8.50;99.90;;;;;;5070444;28;20436;-71
2021/12/01 06:45:09;;;;;;;6.47;5.38;;;8.80;99.90;;;;;;5086722;28;20372;-70
2021/12/01 06:47:35;;;;;;;5.40;4.90;;;8.90;99.90;;;;;;5069654;28;20083;-70
2021/12/01 06:50:03;;;;;;;6.35;5.40;;;8.90;99.90;;;;;;5070051;28;20080;-69
2021/12/01 06:52:30;;;;;;;5.60;5.05;;;8.70;99.90;;;;;;5069662;28;20048;-69
2021/12/01 06:54:58;;;;;;;5.97;5.38;;;9.30;99.90;;;;;;5070118;28;20663;-69
2021/12/01 06:57:24;;;;;;;5.95;5.35;;;8.40;99.90;;;;;;5069603;28;20128;-69
2021/12/01 06:59:50;;;;;;;5.03;4.40;;;8.40;99.90;;;;;;5052967;28;20044;-69
2021/12/01 07:02:17;;;;;;;5.63;4.97;;;8.70;99.90;;;;;;5068785;28;20044;-70
2021/12/01 07:04:43;;;;;;;6.53;4.90;;;8.70;99.90;;;;;;5069463;28;20052;-69
2021/12/01 07:07:09;;;;;;;5.55;5.05;;;8.90;99.90;;;;;;5069714;28;20055;-70
2021/12/01 07:09:35;;;;;;;5.38;4.72;;;8.70;99.90;;;;;;5069663;28;20040;-69
2021/12/01 07:12:01;;;;;;;5.13;4.63;;;8.70;99.90;;;;;;5069757;28;20072;-69
2021/12/01 07:14:27;;;;;;;7.82;4.32;;;8.50;99.90;;;;;;5069862;28;20058;-69
2021/12/01 07:16:53;;;;;;;6.30;4.82;;;8.60;99.90;;;;;;5070761;28;20037;-70
2021/12/01 07:19:19;;;;;;;5.28;4.53;;;8.60;99.90;;;;;;5069744;28;20056;-70
2021/12/01 07:21:45;;;;;;;5.50;4.93;;;8.30;99.90;;;;;;5069402;28;20058;-69
2021/12/01 07:24:11;;;;;;;6.05;4.80;;;8.90;99.90;;;;;;5069623;28;20099;-69
2021/12/01 07:26:37;;;;;;;5.47;4.97;;;8.90;99.90;;;;;;5052616;28;20597;-68
2021/12/01 07:29:03;;;;;;;5.93;4.53;;;8.60;99.90;;;;;;5069204;28;20051;-70
2021/12/01 07:31:29;;;;;;;4.53;4.13;;;8.90;99.90;;;;;;5052419;28;20048;-68
2021/12/01 07:33:55;;;;;;;5.20;4.63;;;8.70;99.90;;;;;;5069439;28;20051;-68
2021/12/01 07:36:22;;;;;;;5.65;4.85;;;9.40;99.90;;;;;;5069182;28;20049;-69
2021/12/01 07:38:50;;;;;;;5.22;4.72;;;8.70;99.90;;;;;;5069857;28;20396;-69
2021/12/01 07:41:16;;;;;;;4.97;4.47;;;8.50;99.90;;;;;;5052692;28;20551;-70
2021/12/01 07:43:42;;;;;;;5.35;4.10;;;8.70;99.90;;;;;;5069193;28;20044;-70
2021/12/01 07:46:08;;;;;;;4.63;3.90;;;8.10;99.90;;;;;;5086118;28;20174;-69
2021/12/01 07:48:36;;;;;;;4.20;3.80;;;8.40;99.90;;;;;;5085754;28;20051;-70
2021/12/01 07:51:02;;;;;;;4.72;4.25;;;8.80;99.90;;;;;;5052541;28;20063;-68
2021/12/01 07:53:28;;;;;;;3.60;3.30;;;;;;;;;;5070353;28;20040;-69
2021/12/01 07:55:54;;;;;;;4.38;3.70;;;9.00;99.90;;;;;;5068701;28;20625;-69
2021/12/01 07:58:20;;;;;;;4.55;4.10;;;8.70;99.90;;;;;;5068786;28;20476;-69
2021/12/01 08:00:50;;;;;;;4.00;3.60;;;;;;;;;;5052623;28;20154;-68
2021/12/01 08:03:16;;;;;;;3.95;3.55;;;;;;;;;;5069165;28;20040;-69
2021/12/01 08:05:42;;;;;;;4.30;3.90;;;8.30;99.90;;;;;;5052564;28;20045;-70
2021/12/01 08:08:10;;;;;;;4.32;3.92;;;8.40;99.90;;;;;;5068759;28;20040;-68
2021/12/01 08:10:36;;;;;;;4.78;3.58;;;;;;;;;;5068851;28;20040;-70
2021/12/01 08:13:04;;;;;;;3.95;3.50;;;8.50;99.90;;;;;;5053208;28;20050;-70
2021/12/01 08:15:30;;;;;;;4.50;3.53;;;8.70;99.90;;;;;;5072819;28;20056;-69
2021/12/01 08:17:55;;;;;;;4.15;3.50;;;9.00;99.90;;;;;;5072701;28;20139;-69
2021/12/01 08:20:21;;;;;;;4.28;3.53;;;8.60;99.90;;;;;;5072575;28;20084;-69
2021/12/01 08:22:48;;;;;;;6.22;3.78;;;8.30;99.90;;;;;;5072546;28;20151;-67
2021/12/01 08:25:15;;;;;;;3.92;3.60;;;8.20;99.90;;;;;;5089524;28;20084;-69
2021/12/01 08:27:42;;;;;;;4.63;3.92;;;;;;;;;;5055756;28;20048;-69
2021/12/01 08:30:08;;;;;;;4.57;4.18;;;8.60;99.90;;;;;;5072605;28;20048;-70
2021/12/01 08:32:35;;;;;;;4.32;3.92;;;8.90;99.90;;;;;;5073536;28;20074;-70
2021/12/01 08:35:01;;;;;;;4.38;3.97;;;8.70;99.90;;;;;;5072970;28;20453;-68
2021/12/01 08:37:26;;;;;;;4.68;3.70;;;8.80;99.90;;;;;;5072696;28;20119;-69
2021/12/01 08:39:53;;;;;;;5.38;4.10;;;9.00;99.90;;;;;;5072193;28;20126;-69
2021/12/01 08:42:23;;;;;;;6.50;3.72;;;9.50;99.90;;;;;;5073588;28;20553;-68
2021/12/01 08:44:50;;;;;;;4.50;4.05;;;8.60;99.90;;;;;;5072884;28;20403;-68
2021/12/01 08:47:18;;;;;;;4.32;3.92;;;8.80;99.90;;;;;;5072875;28;20036;-70
2021/12/01 08:49:45;;;;;;;4.55;4.15;;;9.00;99.90;;;;;;5072126;28;20055;-69
2021/12/01 08:52:11;;;;;;;5.68;4.70;;;;;;;;;;5071975;28;20044;-69
2021/12/01 08:54:37;;;;;;;5.07;4.40;;;8.70;99.90;;;;;;5072081;28;20459;-69
2021/12/01 08:57:03;;;;;;;7.57;4.85;;;8.90;99.90;;;;;;5089130;28;20079;-69
2021/12/01 08:59:30;;;;;;;5.88;4.80;;;9.00;99.90;;;;;;5072403;28;20498;-68
2021/12/01 09:01:56;;;;;;;6.55;4.93;;;9.00;99.90;;;;;;5072105;28;20052;-69
2021/12/01 09:04:22;;;;;;;6.60;5.22;;;9.00;99.90;;;;;;5072430;28;20045;-69
2021/12/01 09:06:48;;;;;;;8.40;5.20;;;9.00;99.90;;;;;;5072116;28;20072;-68
2021/12/01 09:09:18;;;;;;;6.97;5.55;;;8.90;99.90;;;;;;5071979;28;20086;-68
2021/12/01 09:11:54;;;;;;;5.95;4.93;;;9.00;99.90;;;;;;5072094;28;20049;-70
2021/12/01 09:14:23;;;;;;;8.15;6.18;;;8.80;99.90;;;;;;5072141;28;20082;-67
2021/12/01 09:16:50;;;;;;;8.20;3.85;;;9.00;99.90;;;;;;5072224;28;20449;-67
2021/12/01 09:19:15;;;;;;;6.07;3.40;;;8.90;99.90;;;;;;5072008;28;20090;-68
2021/12/01 09:21:42;;;;;;;5.82;3.40;;;9.10;99.90;;;;;;5071801;28;20084;-68
2021/12/01 09:24:07;;;;;;;6.32;3.38;;;9.70;99.90;;;;;;5071527;28;20075;-68
2021/12/01 09:26:34;;;;;;;10.75;3.60;;;;;;;;;;5072555;28;20095;-68
2021/12/01 09:29:00;;;;;;;7.72;3.47;;;9.20;99.90;;;;;;5072087;28;20128;-69
2021/12/01 09:31:26;;;;;;;9.80;3.78;;;9.30;99.90;;;;;;5072411;28;20127;-68
2021/12/01 09:33:53;;;;;;;8.57;3.60;;;9.10;99.90;;;;;;5071738;28;20128;-69
2021/12/01 09:36:19;;;;;;;9.65;3.40;;;9.10;99.90;;;;;;5055183;28;20127;-69
2021/12/01 09:38:45;;;;;;;11.63;3.20;;;9.20;99.90;;;;;;5055001;28;20477;-69
2021/12/01 09:41:11;;;;;;;9.13;3.03;;;9.20;99.90;;;;;;5071316;28;20131;-69
2021/12/01 09:43:38;;;;;;;12.98;3.10;;;9.10;99.90;;;;;;5071373;28;20492;-70
2021/12/01 09:46:08;;;;;;;12.73;2.67;;;9.40;99.90;;;;;;5088226;28;20059;-68
2021/12/01 09:48:38;;;;;;;12.48;3.10;;;9.30;99.90;;;;;;5071501;28;20051;-68
2021/12/01 09:51:05;;;;;;;14.32;2.72;;;8.80;99.90;;;;;;5071084;28;20044;-67
2021/12/01 09:53:31;;;;;;;14.70;2.42;;;;;;;;;;5070888;28;20040;-68
2021/12/01 09:55:57;;;;;;;12.13;3.10;;;9.30;99.90;;;;;;5071418;28;20393;-68
2021/12/01 09:58:27;;;;;;;12.35;2.70;;;9.30;99.90;;;;;;5071057;28;20041;-68
2021/12/01 10:00:58;;;;;;;8.65;2.35;;;9.20;99.90;;;;;;5070803;28;20569;-69
2021/12/01 10:03:24;;;;;;;10.30;2.40;;;9.10;99.90;;;;;;5054353;28;20094;-69
2021/12/01 10:06:07;;;;;;;13.43;3.08;;;9.40;99.90;;;;;;5055158;28;20673;-69
2021/12/01 10:08:35;;;;;;;12.55;2.70;;;9.00;99.90;;;;;;5071158;28;20488;-69
2021/12/01 10:11:29;;;;;;;12.70;2.60;;;9.80;99.90;;;;;;5054999;28;20385;-68
2021/12/01 10:14:02;;;;;;;13.32;2.33;;;9.30;99.90;;;;;;5054313;28;20090;-70
2021/12/01 10:16:30;;;;;;;18.63;2.85;;;9.20;99.90;;;;;;5070911;28;20094;-71
2021/12/01 10:19:02;;;;;;;13.82;2.70;;;9.10;99.90;;;;;;5071383;28;20064;-71
2021/12/01 10:21:40;;;;;;;12.15;2.28;;;9.00;99.90;;;;;;5054476;28;20036;-68
2021/12/01 10:24:16;;;;;;;10.82;2.47;;;8.80;99.90;;;;;;5071302;28;20044;-68
2021/12/01 10:26:41;;;;;;;10.23;2.05;;;9.30;99.90;;;;;;5070811;28;20036;-68
2021/12/01 10:29:11;;;;;;;11.13;2.40;;;9.00;99.90;;;;;;5070667;28;20056;-68
2021/12/01 10:31:46;;;;;;;11.10;2.50;;;9.10;99.90;;;;;;5070517;28;20040;-68
2021/12/01 10:34:36;;;;;;;11.93;2.03;;;9.10;99.90;;;;;;5087055;28;20044;-68
2021/12/01 10:37:28;;;;;;;15.77;2.40;;;9.10;99.90;;;;;;5070221;28;20654;-68
2021/12/01 10:40:18;;;;;;;11.10;2.20;;;9.00;99.90;;;;;;5071448;28;20060;-68
2021/12/01 10:42:49;;;;;;;9.32;2.17;;;9.00;99.90;;;;;;5070433;28;20045;-69
2021/12/01 10:45:18;;;;;;;13.13;2.53;;;9.10;99.90;;;;;;5053593;28;20097;-68
2021/12/01 10:47:44;;;;;;;8.50;2.20;;;9.10;99.90;;;;;;5070378;28;20036;-68
2021/12/01 10:50:13;;;;;;;13.30;2.60;;;8.70;99.90;;;;;;5087377;28;20109;-68
2021/12/01 10:52:45;;;;;;;11.93;2.30;;;9.10;99.90;;;;;;5070347;28;20083;-69
2021/12/01 10:55:21;;;;;;;10.35;2.30;;;9.00;99.90;;;;;;5070273;28;20044;-71
2021/12/01 10:57:55;;;;;;;10.77;2.25;;;9.70;99.90;;;;;;5069941;28;20048;-69
2021/12/01 11:00:27;;;;;;;14.80;2.90;;;9.10;99.90;;;;;;5070062;28;20403;-69
2021/12/01 11:03:03;;;;;;;13.90;2.60;;;9.10;99.90;;;;;;5070068;28;20076;-70
2021/12/01 11:05:34;;;;;;;;;;;9.10;99.90;;;;;;5070413;28;20135;-69
2021/12/01 11:08:17;;;;;;;12.73;2.40;;;8.90;99.90;;;;;;5069814;28;19971;-69
2021/12/01 11:11:07;;;;;;;18.08;2.60;;;9.30;99.90;;;;;;5070270;28;20076;-69
2021/12/01 11:13:33;;;;;;;11.73;2.70;;;9.30;99.90;;;;;;5069903;28;20059;-69
2021/12/01 11:16:03;;;;;;;14.02;2.63;;;9.40;99.90;;;;;;5069982;28;20048;-69
2021/12/01 11:18:31;;;;;;;13.43;2.72;;;9.40;99.90;;;;;;5069725;28;20047;-70
2021/12/01 11:20:59;;;;;;;14.52;2.70;;;9.30;99.90;;;;;;5069285;28;20047;-70
2021/12/01 11:23:39;;;;;;;14.05;2.40;;;9.40;99.90;;;;;;5069564;28;20131;-71
2021/12/01 11:26:18;;;;;;;15.25;3.03;;;9.50;99.90;;;;;;5052845;28;20488;-71
2021/12/01 11:28:50;;;;;;;11.68;2.78;;;9.20;99.90;;;;;;5069432;28;20048;-70
2021/12/01 11:31:25;;;;;;;16.55;3.20;;;9.40;99.90;;;;;;5069486;28;20084;-67
2021/12/01 11:33:55;;;;;;;12.98;2.90;;;9.40;99.90;;;;;;5069631;28;20044;-67
2021/12/01 11:36:27;;;;;;;27.17;3.13;;;9.40;99.90;;;;;;5069653;28;20036;-66
2021/12/01 11:38:55;;;;;;;14.93;2.88;;;9.40;99.90;;;;;;5069583;28;20131;-67
2021/12/01 11:41:21;;;;;;;12.93;2.88;;;9.50;99.90;;;;;;5069253;28;20054;-67
2021/12/01 11:43:49;;;;;;;16.42;3.10;;;9.40;99.90;;;;;;5069503;28;20044;-67
2021/12/01 11:46:15;;;;;;;23.85;3.70;;;9.50;99.90;;;;;;5053001;28;20043;-67
2021/12/01 11:49:11;;;;;;;18.27;2.92;;;9.70;99.90;;;;;;5068974;28;20045;-67
2021/12/01 11:51:40;;;;;;;15.30;3.08;;;9.40;99.90;;;;;;5052126;28;20060;-67
2021/12/01 11:54:11;;;;;;;19.23;3.20;;;9.40;99.90;;;;;;5069591;28;20097;-68
2021/12/01 11:56:38;;;;;;;21.67;4.05;;;9.40;99.90;;;;;;5069181;28;20123;-67
2021/12/01 11:59:16;;;;;;;18.05;3.63;;;9.40;99.90;;;;;;5069429;28;20114;-67
2021/12/01 12:01:44;;;;;;;19.25;4.05;;;9.90;99.90;;;;;;5070407;28;20488;-66
2021/12/01 12:04:13;;;;;;;21.55;4.00;;;9.40;99.90;;;;;;5069315;28;20036;-67
2021/12/01 12:06:52;;;;;;;23.20;3.53;;;9.50;99.90;;;;;;5070542;28;20070;-67
2021/12/01 12:09:21;;;;;;;15.80;4.13;;;10.00;99.90;;;;;;5069641;28;20074;-66
2021/12/01 12:11:49;;;;;;;20.90;4.07;;;9.40;99.90;;;;;;5052756;28;20480;-66
2021/12/01 12:14:18;;;;;;;19.05;4.28;;;9.40;99.90;;;;;;5069492;28;20074;-67
2021/12/01 12:17:15;;;;;;;19.48;3.55;;;9.30;99.90;;;;;;5069069;28;20089;-67
2021/12/01 12:19:43;;;;;;;;;;;9.30;99.90;;;;;;5070006;28;20044;-67
2021/12/01 12:22:16;;;;;;;18.60;3.42;;;9.20;99.90;;;;;;5069162;28;20431;-67
2021/12/01 12:24:53;;;;;;;22.42;3.70;;;9.10;99.90;;;;;;5052216;28;20072;-67
2021/12/01 12:27:45;;;;;;;16.90;3.33;;;9.30;99.90;;;;;;5069165;28;20059;-67
2021/12/01 12:30:34;;;;;;;19.02;3.67;;;9.20;99.90;;;;;;5086186;28;20717;-67
2021/12/01 12:33:20;;;;;;;21.80;3.90;;;9.10;99.90;;;;;;5069134;28;20057;-67
2021/12/01 12:35:50;;;;;;;23.48;4.38;;;8.80;99.90;;;;;;5069177;28;20433;-67
2021/12/01 12:38:16;;;;;;;19.77;3.33;;;9.10;99.90;;;;;;5068966;28;20055;-67
2021/12/01 12:40:44;;;;;;;19.75;3.80;;;9.00;99.90;;;;;;5068584;28;20094;-68
2021/12/01 12:43:09;;;;;;;19.40;4.25;;;9.10;99.90;;;;;;5069165;28;20446;-67
2021/12/01 12:45:38;;;;;;;23.48;4.57;;;8.90;99.90;;;;;;5068778;28;20040;-67
2021/12/01 12:48:32;;;;;;;18.73;3.70;;;8.90;99.90;;;;;;5069127;28;20052;-66
2021/12/01 12:51:07;;;;;;;22.40;4.13;;;8.80;99.90;;;;;;5068914;28;20094;-67
2021/12/01 12:53:33;;;;;;;20.58;4.53;;;8.80;99.90;;;;;;5068870;28;20044;-66
2021/12/01 12:55:58;;;;;;;19.25;4.45;;;8.80;99.90;;;;;;5069027;28;20147;-71
2021/12/01 12:58:35;;;;;;;20.50;4.43;;;8.80;99.90;;;;;;5069240;28;20074;-71
2021/12/01 13:01:01;;;;;;;21.17;3.70;;;8.70;99.90;;;;;;5071257;28;20041;-71
2021/12/01 13:03:30;;;;;;;23.27;3.80;;;8.40;99.90;;;;;;5072921;28;20118;-71
2021/12/01 13:06:01;;;;;;;19.08;3.88;;;8.60;99.90;;;;;;5055980;28;20045;-75